Time;durP1;ratioP1;P1;durP2;ratioP2;P2;SDS_P1;SDS_P2;PMS_P1;PMS_P2;Temp;Humidity;BMP_temperature;BMP_pressure;BME280_temperature;BME280_humidity;BME280_pressure;Samples;Min_cycle;Max_cycle;Signal;HPM_P1;HPM_P2
2024/01/08 00:01:16;;;;;;;16.45;8.27;;;-2.10;99.90;;;;;;5055554;28;20056;-63
2024/01/08 00:03:42;;;;;;;12.60;7.18;;;-1.60;99.90;;;;;;5055802;28;20024;-64
2024/01/08 00:06:07;;;;;;;13.40;7.93;;;-2.20;99.90;;;;;;5056260;28;20033;-63
2024/01/08 00:08:33;;;;;;;15.93;8.63;;;-0.10;99.90;;;;;;5055751;28;20077;-63
2024/01/08 00:10:58;;;;;;;16.13;7.05;;;-2.20;99.90;;;;;;5055502;28;20070;-63
2024/01/08 00:13:24;;;;;;;15.70;8.48;;;-2.00;99.90;;;;;;5055628;28;20029;-63
2024/01/08 00:15:50;;;;;;;16.10;8.05;;;-0.20;99.90;;;;;;5055914;28;20120;-63
2024/01/08 00:18:16;;;;;;;14.07;7.43;;;-1.90;99.90;;;;;;5055530;28;20076;-62
2024/01/08 00:20:42;;;;;;;16.90;7.82;;;-2.20;99.90;;;;;;5055545;28;20086;-62
2024/01/08 00:23:08;;;;;;;13.35;8.15;;;-0.80;99.90;;;;;;5055518;28;20025;-63
2024/01/08 00:25:34;;;;;;;12.65;7.32;;;-2.20;99.90;;;;;;5055423;28;20028;-63
2024/01/08 00:28:00;;;;;;;17.30;8.13;;;-1.30;99.90;;;;;;5054481;28;20433;-63
2024/01/08 00:30:26;;;;;;;18.60;8.25;;;-1.80;99.90;;;;;;5054773;28;20095;-63
2024/01/08 00:32:52;;;;;;;14.20;7.53;;;-2.30;99.90;;;;;;5056842;28;20029;-63
2024/01/08 00:35:18;;;;;;;20.15;8.77;;;-2.10;99.90;;;;;;5055389;28;20480;-63
2024/01/08 00:37:43;;;;;;;15.85;7.93;;;-1.10;99.90;;;;;;5055491;28;20102;-63
2024/01/08 00:40:10;;;;;;;15.07;7.47;;;-2.20;99.90;;;;;;5056140;28;20554;-64
2024/01/08 00:42:37;;;;;;;14.77;7.72;;;-2.30;99.90;;;;;;5056247;28;20025;-63
2024/01/08 00:45:06;;;;;;;14.30;7.13;;;0.20;99.90;;;;;;5055171;28;20052;-63
2024/01/08 00:47:32;;;;;;;13.85;7.70;;;-2.30;99.90;;;;;;5055202;28;20029;-63
2024/01/08 00:49:58;;;;;;;18.17;8.18;;;-1.80;99.90;;;;;;5055091;28;20033;-63
2024/01/08 00:52:24;;;;;;;15.30;8.32;;;-2.40;99.90;;;;;;5054579;28;20031;-63
2024/01/08 00:54:49;;;;;;;14.95;8.02;;;-1.90;99.90;;;;;;5054922;28;20060;-63
2024/01/08 00:57:15;;;;;;;18.02;7.97;;;-2.40;99.90;;;;;;5054833;28;20025;-63
2024/01/08 00:59:41;;;;;;;16.13;8.15;;;0.20;99.90;;;;;;5054516;28;20025;-66
2024/01/08 01:02:06;;;;;;;17.35;7.60;;;-2.40;99.90;;;;;;5054848;28;20418;-63
2024/01/08 01:04:32;;;;;;;13.18;7.45;;;-2.20;99.90;;;;;;5053792;28;20366;-63
2024/01/08 01:06:57;;;;;;;14.82;7.97;;;-0.10;99.90;;;;;;5055613;28;20025;-63
2024/01/08 01:09:23;;;;;;;15.75;8.48;;;-0.50;99.90;;;;;;5055879;28;20082;-63
2024/01/08 01:11:48;;;;;;;18.83;8.32;;;-0.70;99.90;;;;;;5058200;28;20044;-63
2024/01/08 01:14:14;;;;;;;18.40;8.13;;;-2.50;99.90;;;;;;5058625;28;20519;-63
2024/01/08 01:16:40;;;;;;;15.55;7.90;;;-2.60;99.90;;;;;;5055174;28;20029;-63
2024/01/08 01:19:06;;;;;;;17.58;8.88;;;-0.40;99.90;;;;;;5054622;28;20118;-63
2024/01/08 01:21:31;;;;;;;17.55;7.85;;;-1.10;99.90;;;;;;5054554;28;20021;-63
2024/01/08 01:23:57;;;;;;;15.73;7.82;;;-2.10;99.90;;;;;;5053135;28;20020;-63
2024/01/08 01:26:23;;;;;;;16.55;8.40;;;-2.60;99.90;;;;;;5054425;28;20029;-63
2024/01/08 01:28:48;;;;;;;16.90;8.30;;;-2.60;99.90;;;;;;5053969;28;20029;-63
2024/01/08 01:31:14;;;;;;;16.35;8.25;;;-1.00;99.90;;;;;;5054236;28;20021;-63
2024/01/08 01:33:40;;;;;;;14.50;7.20;;;-2.60;99.90;;;;;;5054258;28;20036;-62
2024/01/08 01:36:06;;;;;;;15.30;7.82;;;-1.70;99.90;;;;;;5053253;28;20029;-62
2024/01/08 01:38:32;;;;;;;15.75;7.63;;;-2.60;99.90;;;;;;5054269;28;20067;-62
2024/01/08 01:40:58;;;;;;;19.88;8.13;;;-2.60;99.90;;;;;;5054101;28;20031;-63
2024/01/08 01:43:31;;;;;;;16.13;7.50;;;-1.70;99.90;;;;;;5053716;28;20503;-63
2024/01/08 01:46:01;;;;;;;12.10;7.32;;;-1.60;99.90;;;;;;5053079;28;20021;-62
2024/01/08 01:48:28;;;;;;;17.00;8.35;;;-1.90;99.90;;;;;;5054154;28;20471;-63
2024/01/08 01:50:54;;;;;;;17.70;8.55;;;-1.30;99.90;;;;;;5053914;28;20033;-63
2024/01/08 01:53:20;;;;;;;16.13;7.70;;;-1.50;99.90;;;;;;5053643;28;20049;-63
2024/01/08 01:55:46;;;;;;;15.93;8.10;;;-2.40;99.90;;;;;;5052572;28;20105;-62
2024/01/08 01:58:13;;;;;;;18.90;8.45;;;-2.70;99.90;;;;;;5052554;28;20036;-62
2024/01/08 02:00:39;;;;;;;13.82;7.85;;;-2.70;99.90;;;;;;5052539;28;20143;-63
2024/01/08 02:03:06;;;;;;;14.77;7.78;;;-2.70;99.90;;;;;;5052504;28;20053;-62
2024/01/08 02:05:33;;;;;;;14.13;7.65;;;-2.10;99.90;;;;;;5053817;28;20079;-62
2024/01/08 02:07:59;;;;;;;18.83;9.02;;;-2.20;99.90;;;;;;5054072;28;20107;-62
2024/01/08 02:10:26;;;;;;;19.92;7.80;;;-0.30;99.90;;;;;;5053622;28;20124;-62
2024/01/08 02:12:51;;;;;;;14.77;7.60;;;-2.70;99.90;;;;;;5053769;28;20028;-62
2024/01/08 02:15:17;;;;;;;15.07;8.00;;;-0.60;99.90;;;;;;5053948;28;20025;-63
2024/01/08 02:17:43;;;;;;;14.80;8.77;;;-2.10;99.90;;;;;;5053750;28;20025;-62
2024/01/08 02:20:09;;;;;;;16.63;8.23;;;-1.00;99.90;;;;;;5054785;28;20170;-62
2024/01/08 02:22:41;;;;;;;14.18;7.55;;;-2.70;99.90;;;;;;5057714;28;20021;-62
2024/01/08 02:25:10;;;;;;;16.33;7.93;;;-2.70;99.90;;;;;;5057686;28;20028;-63
2024/01/08 02:27:36;;;;;;;14.43;7.70;;;-2.70;99.90;;;;;;5057626;28;20029;-62
2024/01/08 02:30:01;;;;;;;17.00;8.05;;;-1.30;99.90;;;;;;5056361;28;20048;-63
2024/01/08 02:32:27;;;;;;;13.88;7.45;;;-2.70;99.90;;;;;;5057594;28;20384;-63
2024/01/08 02:34:53;;;;;;;18.00;8.15;;;-0.80;99.90;;;;;;5057370;28;20099;-62
2024/01/08 02:37:18;;;;;;;15.95;7.78;;;-2.70;99.90;;;;;;5057695;28;20032;-62
2024/01/08 02:39:44;;;;;;;15.02;7.00;;;-0.10;99.90;;;;;;5057492;28;20036;-62
2024/01/08 02:42:09;;;;;;;15.68;7.47;;;-2.80;99.90;;;;;;5057098;28;20366;-62
2024/01/08 02:44:35;;;;;;;18.88;8.48;;;-2.80;99.90;;;;;;5057261;28;20116;-62
2024/01/08 02:47:01;;;;;;;13.38;7.60;;;-1.30;99.90;;;;;;5055998;28;20044;-62
2024/01/08 02:49:27;;;;;;;15.23;7.65;;;-2.80;99.90;;;;;;5057206;28;20059;-62
2024/01/08 02:51:53;;;;;;;14.10;8.18;;;-2.80;99.90;;;;;;5057210;28;20035;-62
2024/01/08 02:54:19;;;;;;;15.57;7.03;;;-2.80;99.90;;;;;;5057524;28;20136;-62
2024/01/08 02:56:44;;;;;;;14.88;7.93;;;-2.80;99.90;;;;;;5057194;28;20527;-62
2024/01/08 02:59:10;;;;;;;19.45;8.05;;;-2.70;99.90;;;;;;5056975;28;20079;-62
2024/01/08 03:01:38;;;;;;;15.38;7.50;;;-1.70;99.90;;;;;;5056883;28;20025;-62
2024/01/08 03:04:04;;;;;;;16.30;8.05;;;-2.80;99.90;;;;;;5056693;28;20017;-62
2024/01/08 03:06:30;;;;;;;16.30;8.18;;;-2.40;99.90;;;;;;5056745;28;20032;-62
2024/01/08 03:08:55;;;;;;;18.88;8.32;;;-1.20;99.90;;;;;;5055492;28;20080;-62
2024/01/08 03:11:21;;;;;;;14.82;7.85;;;-2.80;99.90;;;;;;5055561;28;20120;-62
2024/01/08 03:13:47;;;;;;;16.27;7.32;;;-2.90;99.90;;;;;;5057230;28;20044;-62
2024/01/08 03:16:12;;;;;;;16.13;7.93;;;-1.80;99.90;;;;;;5056453;28;20029;-62
2024/01/08 03:18:38;;;;;;;18.83;9.05;;;-2.90;99.90;;;;;;5056702;28;20032;-62
2024/01/08 03:21:04;;;;;;;14.13;8.10;;;-2.90;99.90;;;;;;5055392;28;20443;-62
2024/01/08 03:23:29;;;;;;;13.13;7.38;;;-2.90;99.90;;;;;;5055606;28;20071;-62
2024/01/08 03:25:55;;;;;;;15.82;8.02;;;-0.80;99.90;;;;;;5056591;28;20464;-62
2024/01/08 03:28:21;;;;;;;16.88;8.60;;;-2.80;99.90;;;;;;5056505;28;20052;-62
2024/01/08 03:30:46;;;;;;;12.18;6.93;;;-0.40;99.90;;;;;;5056346;28;20029;-62
2024/01/08 03:33:12;;;;;;;12.98;7.38;;;-2.90;99.90;;;;;;5054153;28;20036;-63
2024/01/08 03:35:38;;;;;;;15.48;7.82;;;-2.20;99.90;;;;;;5056115;28;20029;-62
2024/01/08 03:38:04;;;;;;;15.23;7.95;;;-1.20;99.90;;;;;;5056679;28;20021;-62
2024/01/08 03:40:29;;;;;;;15.48;7.75;;;-2.90;99.90;;;;;;5056279;28;20033;-62
2024/01/08 03:42:55;;;;;;;14.13;7.55;;;-0.90;99.90;;;;;;5055867;28;20445;-62
2024/01/08 03:45:21;;;;;;;15.48;7.68;;;-2.50;99.90;;;;;;5056195;28;20021;-62
2024/01/08 03:47:46;;;;;;;14.05;7.13;;;-2.90;99.90;;;;;;5055968;28;20025;-62
2024/01/08 03:50:12;;;;;;;13.82;7.35;;;-1.90;99.90;;;;;;5056052;28;20037;-62
2024/01/08 03:52:37;;;;;;;14.32;7.90;;;-2.70;99.90;;;;;;5055550;28;20476;-62
2024/01/08 03:55:03;;;;;;;18.27;8.02;;;-2.10;99.90;;;;;;5056377;28;20028;-62
2024/01/08 03:57:29;;;;;;;17.40;8.48;;;-2.90;99.90;;;;;;5054761;28;20033;-62
2024/01/08 03:59:54;;;;;;;15.13;7.85;;;-2.40;99.90;;;;;;5056160;28;20110;-62
2024/01/08 04:02:20;;;;;;;14.93;7.65;;;-1.90;99.90;;;;;;5056253;28;20056;-62
2024/01/08 04:04:46;;;;;;;15.48;8.70;;;-1.30;99.90;;;;;;5056118;28;20025;-62
2024/01/08 04:07:12;;;;;;;15.98;8.55;;;-0.30;99.90;;;;;;5054509;28;20450;-62
2024/01/08 04:09:39;;;;;;;14.75;7.90;;;-2.90;99.90;;;;;;5054548;28;20047;-62
2024/01/08 04:12:05;;;;;;;12.98;6.70;;;-0.30;99.90;;;;;;5055630;28;20391;-63
2024/01/08 04:14:31;;;;;;;17.35;7.60;;;-2.90;99.90;;;;;;5054611;28;20029;-63
2024/01/08 04:16:57;;;;;;;14.63;7.70;;;-2.90;99.90;;;;;;5054107;28;20021;-62
2024/01/08 04:19:24;;;;;;;11.98;7.55;;;-2.40;99.90;;;;;;5054408;28;20029;-62
2024/01/08 04:21:49;;;;;;;13.95;8.13;;;-1.60;99.90;;;;;;5055586;28;20029;-62
2024/01/08 04:24:15;;;;;;;13.50;7.20;;;-1.70;99.90;;;;;;5054327;28;20408;-62
2024/01/08 04:26:40;;;;;;;15.73;7.57;;;-2.90;99.90;;;;;;5055665;28;20029;-62
2024/01/08 04:29:08;;;;;;;16.23;7.53;;;-2.90;99.90;;;;;;5055302;28;20037;-62
2024/01/08 04:31:33;;;;;;;17.20;8.13;;;-0.70;99.90;;;;;;5054464;28;20029;-62
2024/01/08 04:33:59;;;;;;;18.05;8.23;;;-1.20;99.90;;;;;;5055606;28;20511;-62
2024/01/08 04:36:24;;;;;;;16.00;8.13;;;-2.50;99.90;;;;;;5058463;28;20032;-72
2024/01/08 04:38:50;;;;;;;14.70;7.13;;;-2.90;99.90;;;;;;5057065;28;20021;-64
2024/01/08 04:41:20;;;;;;;13.52;7.40;;;-0.70;99.90;;;;;;5057914;28;20469;-63
2024/01/08 04:43:47;;;;;;;13.95;7.35;;;-1.50;99.90;;;;;;5056544;28;20064;-62
2024/01/08 04:46:13;;;;;;;13.05;7.35;;;-2.10;99.90;;;;;;5054331;28;20063;-62
2024/01/08 04:48:42;;;;;;;14.75;7.70;;;-1.70;99.90;;;;;;5053975;28;20025;-62
2024/01/08 04:51:07;;;;;;;16.27;8.40;;;-2.90;99.90;;;;;;5053729;28;20457;-62
2024/01/08 04:53:37;;;;;;;15.55;7.93;;;-1.10;99.90;;;;;;5053242;28;20140;-61
2024/01/08 04:56:03;;;;;;;15.10;8.30;;;-1.70;99.90;;;;;;5054675;28;20423;-62
2024/01/08 04:58:29;;;;;;;14.10;7.55;;;-2.90;99.90;;;;;;5054984;28;20098;-64
2024/01/08 05:00:55;;;;;;;14.68;7.75;;;-2.30;99.90;;;;;;5058161;28;20021;-68
2024/01/08 05:03:20;;;;;;;18.02;8.25;;;-0.70;99.90;;;;;;5058802;28;20052;-63
2024/01/08 05:05:46;;;;;;;14.90;7.63;;;-2.70;99.90;;;;;;5057060;28;20028;-62
2024/01/08 05:08:11;;;;;;;12.90;7.57;;;-1.50;99.90;;;;;;5057310;28;20040;-63
2024/01/08 05:10:37;;;;;;;13.93;7.13;;;-2.90;99.90;;;;;;5055602;28;20091;-61
2024/01/08 05:13:03;;;;;;;16.27;7.18;;;-1.40;99.90;;;;;;5054577;28;20025;-62
2024/01/08 05:15:29;;;;;;;17.15;8.52;;;-2.80;99.90;;;;;;5053399;28;20113;-62
2024/01/08 05:17:55;;;;;;;15.55;8.10;;;-2.80;99.90;;;;;;5054486;28;20381;-62
2024/01/08 05:20:20;;;;;;;15.20;7.45;;;-1.10;99.90;;;;;;5054163;28;20033;-62
2024/01/08 05:22:46;;;;;;;12.45;7.38;;;-2.80;99.90;;;;;;5054428;28;20035;-62
2024/01/08 05:25:12;;;;;;;13.13;7.72;;;-2.90;99.90;;;;;;5054573;28;20056;-62
2024/01/08 05:27:37;;;;;;;13.65;7.05;;;-2.90;99.90;;;;;;5054272;28;20423;-62
2024/01/08 05:30:04;;;;;;;13.52;7.35;;;-2.90;99.90;;;;;;5054123;28;20041;-61
2024/01/08 05:32:29;;;;;;;14.00;7.43;;;-2.90;99.90;;;;;;5054497;28;20021;-61
2024/01/08 05:34:55;;;;;;;13.80;7.53;;;-0.80;99.90;;;;;;5054443;28;20052;-62
2024/01/08 05:37:21;;;;;;;14.57;7.28;;;-0.30;99.90;;;;;;5053093;28;20480;-62
2024/01/08 05:39:46;;;;;;;15.98;7.70;;;-2.90;99.90;;;;;;5054190;28;20033;-62
2024/01/08 05:42:12;;;;;;;12.68;7.35;;;-2.10;99.90;;;;;;5052751;28;20529;-62
2024/01/08 05:44:38;;;;;;;15.57;7.65;;;-2.90;99.90;;;;;;5053904;28;20021;-61
2024/01/08 05:47:04;;;;;;;13.35;7.53;;;-2.70;99.90;;;;;;5054255;28;20025;-62
2024/01/08 05:49:29;;;;;;;16.05;7.47;;;-3.00;99.90;;;;;;5053620;28;20087;-62
2024/01/08 05:51:55;;;;;;;13.88;7.38;;;-1.80;99.90;;;;;;5053245;28;20025;-62
2024/01/08 05:54:21;;;;;;;11.82;7.72;;;-2.90;99.90;;;;;;5054421;28;20045;-63
2024/01/08 05:56:47;;;;;;;14.38;7.63;;;-2.20;99.90;;;;;;5054207;28;20040;-62
2024/01/08 05:59:12;;;;;;;15.82;8.25;;;-0.60;99.90;;;;;;5053569;28;20523;-62
2024/01/08 06:01:39;;;;;;;15.93;7.15;;;-1.60;99.90;;;;;;5054149;28;20055;-62
2024/01/08 06:04:05;;;;;;;12.23;7.50;;;-2.20;99.90;;;;;;5052507;28;20495;-62
2024/01/08 06:06:31;;;;;;;17.55;8.35;;;-0.60;99.90;;;;;;5054233;28;20057;-63
2024/01/08 06:08:57;;;;;;;18.70;7.88;;;-2.90;99.90;;;;;;5052655;28;20033;-62
2024/01/08 06:11:24;;;;;;;16.85;7.55;;;-1.30;99.90;;;;;;5053710;28;20032;-63
2024/01/08 06:13:50;;;;;;;12.30;7.03;;;-2.90;99.90;;;;;;5052674;28;20033;-62
2024/01/08 06:16:18;;;;;;;15.90;7.47;;;-2.70;99.90;;;;;;5053748;28;20021;-62
2024/01/08 06:18:44;;;;;;;14.38;7.30;;;-1.30;99.90;;;;;;5053969;28;20025;-62
2024/01/08 06:21:10;;;;;;;13.23;7.18;;;-2.90;99.90;;;;;;5053742;28;20041;-62
2024/01/08 06:23:35;;;;;;;15.48;7.13;;;-2.80;99.90;;;;;;5053570;28;20025;-62
2024/01/08 06:26:04;;;;;;;12.70;7.43;;;-0.40;99.90;;;;;;5052444;28;20029;-62
2024/01/08 06:28:30;;;;;;;14.85;7.20;;;-2.70;99.90;;;;;;5053559;28;20032;-63
2024/01/08 06:30:56;;;;;;;12.82;6.53;;;-2.90;99.90;;;;;;5052199;28;20029;-62
2024/01/08 06:33:22;;;;;;;15.45;8.02;;;-1.20;99.90;;;;;;5053518;28;20029;-62
2024/01/08 06:35:48;;;;;;;14.82;7.75;;;-2.90;99.90;;;;;;5053466;28;20029;-62
2024/01/08 06:38:13;;;;;;;15.50;8.38;;;-2.80;99.90;;;;;;5052875;28;20021;-63
2024/01/08 06:40:39;;;;;;;17.17;8.00;;;-1.00;99.90;;;;;;5052224;28;20029;-63
2024/01/08 06:43:05;;;;;;;13.63;6.43;;;-2.90;99.90;;;;;;5053535;28;20032;-62
2024/01/08 06:45:31;;;;;;;13.63;7.40;;;-1.00;99.90;;;;;;5055091;28;20021;-62
2024/01/08 06:47:57;;;;;;;12.70;7.40;;;-2.90;99.90;;;;;;5055084;28;20025;-63
2024/01/08 06:50:23;;;;;;;16.00;7.57;;;-0.60;99.90;;;;;;5054503;28;20104;-63
2024/01/08 06:52:49;;;;;;;16.30;7.78;;;-2.90;99.90;;;;;;5052373;28;20065;-62
2024/01/08 06:55:15;;;;;;;17.20;7.43;;;-2.80;99.90;;;;;;5053136;23;20073;-61
2024/01/08 06:57:40;;;;;;;13.40;7.10;;;-2.20;99.90;;;;;;5013846;28;20053;-61
2024/01/08 07:00:08;;;;;;;14.18;8.18;;;-2.80;99.90;;;;;;5013584;28;20048;-61
2024/01/08 07:02:33;;;;;;;16.52;7.65;;;-2.80;99.90;;;;;;5013601;28;20022;-61
2024/01/08 07:04:59;;;;;;;13.32;7.55;;;-2.40;99.90;;;;;;5013533;28;20030;-61
2024/01/08 07:07:26;;;;;;;13.52;7.13;;;-2.80;99.90;;;;;;5013661;28;20034;-61
2024/01/08 07:09:53;;;;;;;16.90;7.63;;;-0.20;99.90;;;;;;5015829;28;20053;-61
2024/01/08 07:12:18;;;;;;;21.23;8.93;;;-2.80;99.90;;;;;;5016179;28;20548;-61
2024/01/08 07:14:46;;;;;;;15.80;8.07;;;-2.80;99.90;;;;;;5017287;28;20034;-62
2024/01/08 07:17:12;;;;;;;17.35;8.38;;;-2.80;99.90;;;;;;5017641;28;20026;-61
2024/01/08 07:19:37;;;;;;;15.65;7.03;;;-2.70;99.90;;;;;;5016457;28;20056;-61
2024/01/08 07:22:04;;;;;;;16.25;7.22;;;-2.80;99.90;;;;;;5032091;28;20056;-61
2024/01/08 07:24:29;;;;;;;18.92;7.45;;;-2.70;99.90;;;;;;5016855;28;20026;-61
2024/01/08 07:26:57;;;;;;;16.77;8.40;;;-2.80;99.90;;;;;;5016833;28;20030;-61
2024/01/08 07:29:22;;;;;;;15.80;8.27;;;-2.80;99.90;;;;;;5016731;28;20034;-61
2024/01/08 07:31:48;;;;;;;14.82;7.18;;;-1.10;99.90;;;;;;5015475;28;20026;-61
2024/01/08 07:34:13;;;;;;;15.10;7.32;;;-2.30;99.90;;;;;;5016656;28;20021;-61
2024/01/08 07:36:39;;;;;;;13.43;7.40;;;-2.80;99.90;;;;;;5016852;28;20022;-61
2024/01/08 07:39:05;;;;;;;14.93;7.47;;;-2.10;99.90;;;;;;5016968;28;20113;-61
2024/01/08 07:41:30;;;;;;;16.17;7.50;;;-2.80;99.90;;;;;;5016856;28;20030;-61
2024/01/08 07:43:56;;;;;;;13.43;7.53;;;-2.80;99.90;;;;;;5015266;28;20098;-61
2024/01/08 07:46:21;;;;;;;13.93;7.53;;;-1.00;99.90;;;;;;5015242;28;20496;-61
2024/01/08 07:48:47;;;;;;;14.77;7.30;;;-2.80;99.90;;;;;;5016419;28;20026;-61
2024/01/08 07:51:13;;;;;;;16.48;7.15;;;-2.90;99.90;;;;;;5016116;28;20371;-61
2024/01/08 07:53:38;;;;;;;14.40;7.90;;;-0.20;99.90;;;;;;5014801;28;20022;-61
2024/01/08 07:56:04;;;;;;;17.95;8.20;;;-2.90;99.90;;;;;;5031291;28;20081;-61
2024/01/08 07:58:30;;;;;;;20.10;8.65;;;-2.80;99.90;;;;;;5014969;28;20417;-61
2024/01/08 08:00:55;;;;;;;17.45;8.13;;;-2.80;99.90;;;;;;5016632;28;20030;-61
2024/01/08 08:03:21;;;;;;;16.30;8.20;;;-2.30;99.90;;;;;;5016621;28;20426;-61
2024/01/08 08:05:47;;;;;;;19.25;8.35;;;-2.40;99.90;;;;;;5016297;28;20072;-61
2024/01/08 08:08:13;;;;;;;18.75;8.38;;;-2.20;99.90;;;;;;5014810;28;20155;-61
2024/01/08 08:10:39;;;;;;;19.40;8.05;;;-2.70;99.90;;;;;;5015998;28;20030;-61
2024/01/08 08:13:05;;;;;;;17.10;8.20;;;-1.20;99.90;;;;;;5031366;28;20215;-61
2024/01/08 08:15:30;;;;;;;19.95;8.73;;;-2.60;99.90;;;;;;5031247;28;20033;-61
2024/01/08 08:17:56;;;;;;;17.50;7.38;;;-0.90;99.90;;;;;;5015458;28;20112;-61
2024/01/08 08:20:22;;;;;;;14.45;7.90;;;-1.70;99.90;;;;;;5016106;28;20056;-61
2024/01/08 08:22:48;;;;;;;15.38;8.20;;;-3.00;99.90;;;;;;5014532;28;20026;-62
2024/01/08 08:25:14;;;;;;;19.20;8.60;;;-1.00;99.90;;;;;;5015706;28;20025;-61
2024/01/08 08:27:40;;;;;;;15.85;8.15;;;-1.20;99.90;;;;;;5014044;28;20492;-61
2024/01/08 08:30:08;;;;;;;17.67;8.05;;;-0.50;99.90;;;;;;5014326;28;20041;-61
2024/01/08 08:32:33;;;;;;;17.63;8.27;;;-2.80;99.90;;;;;;5015272;28;20026;-61
2024/01/08 08:35:00;;;;;;;22.38;8.65;;;-2.40;99.90;;;;;;5014359;28;20022;-61
2024/01/08 08:37:25;;;;;;;17.90;7.65;;;-2.90;99.90;;;;;;5014227;28;20544;-60
2024/01/08 08:39:51;;;;;;;18.23;7.80;;;-2.00;99.90;;;;;;5015205;28;20030;-61
2024/01/08 08:42:16;;;;;;;18.45;8.02;;;-1.80;99.90;;;;;;5015490;28;20065;-60
2024/01/08 08:44:42;;;;;;;18.35;8.15;;;-2.20;99.90;;;;;;5015486;28;20032;-61
2024/01/08 08:47:08;;;;;;;23.45;9.25;;;-0.90;99.90;;;;;;5015454;28;20485;-61
2024/01/08 08:49:33;;;;;;;14.70;6.97;;;-3.00;99.90;;;;;;5013957;28;20044;-60
2024/01/08 08:51:59;;;;;;;19.65;7.97;;;-1.50;99.90;;;;;;5015331;28;20151;-61
2024/01/08 08:54:24;;;;;;;19.92;7.50;;;-2.60;99.90;;;;;;5015230;28;20406;-61
2024/01/08 08:56:50;;;;;;;14.52;7.35;;;-1.20;99.90;;;;;;5014421;28;20033;-61
2024/01/08 08:59:16;;;;;;;16.00;8.13;;;-2.50;99.90;;;;;;5014982;28;20029;-61
2024/01/08 09:01:41;;;;;;;18.80;8.32;;;-1.80;99.90;;;;;;5014032;28;20080;-60
2024/01/08 09:04:07;;;;;;;21.73;8.50;;;-3.00;99.90;;;;;;5015252;28;20057;-60
2024/01/08 09:06:34;;;;;;;19.30;9.63;;;-1.30;99.90;;;;;;5014800;28;20105;-61
2024/01/08 09:09:00;;;;;;;18.08;7.65;;;-3.10;99.90;;;;;;5015083;28;20032;-60
2024/01/08 09:11:27;;;;;;;22.70;10.50;;;-3.00;99.90;;;;;;5014984;28;20025;-61
2024/01/08 09:13:53;;;;;;;20.95;8.35;;;-3.20;99.90;;;;;;5014909;28;20030;-60
2024/01/08 09:16:19;;;;;;;21.80;9.80;;;-0.80;99.90;;;;;;5014821;28;20412;-61
2024/01/08 09:18:47;;;;;;;26.42;12.05;;;-3.30;99.90;;;;;;5015022;28;20025;-61
2024/01/08 09:21:13;;;;;;;;;;;-0.60;99.90;;;;;;5014038;28;20037;-60
2024/01/08 09:23:42;;;;;;;22.48;9.95;;;-1.10;99.90;;;;;;5013666;28;19909;-61
2024/01/08 09:26:08;;;;;;;20.60;10.50;;;-3.10;99.90;;;;;;5014644;28;20026;-60
2024/01/08 09:28:34;;;;;;;20.73;8.25;;;-0.70;99.90;;;;;;5014588;28;20034;-61
2024/01/08 09:31:02;;;;;;;16.92;8.48;;;-1.40;99.90;;;;;;5013735;28;20030;-60
2024/01/08 09:33:28;;;;;;;18.63;8.93;;;-3.20;99.90;;;;;;5014566;28;20087;-61
2024/01/08 09:35:54;;;;;;;21.48;9.43;;;-0.50;99.90;;;;;;5014461;28;20089;-60
2024/01/08 09:38:20;;;;;;;16.92;8.50;;;-3.10;99.90;;;;;;5013225;28;20382;-60
2024/01/08 09:40:47;;;;;;;19.17;8.95;;;-3.10;99.90;;;;;;5014368;28;20057;-61
2024/01/08 09:43:16;;;;;;;21.92;9.35;;;-3.10;99.90;;;;;;5013136;28;20026;-61
2024/01/08 09:46:05;;;;;;;17.80;9.23;;;-1.50;99.90;;;;;;5013053;28;20030;-60
2024/01/08 09:48:33;;;;;;;17.08;8.73;;;-3.20;99.90;;;;;;5013801;28;20332;-61
2024/01/08 09:51:00;;;;;;;21.52;9.93;;;-3.20;99.90;;;;;;5012234;28;20065;-61
2024/01/08 09:53:30;;;;;;;21.77;9.77;;;-2.90;99.90;;;;;;5013072;28;20034;-60
2024/01/08 09:55:57;;;;;;;18.63;9.30;;;-2.30;99.90;;;;;;5028934;28;20050;-61
2024/01/08 09:58:24;;;;;;;21.52;9.30;;;-1.50;99.90;;;;;;5013856;28;20462;-61
2024/01/08 10:00:50;;;;;;;18.60;9.70;;;-3.30;99.90;;;;;;5013956;28;20608;-60
2024/01/08 10:03:15;;;;;;;20.45;9.25;;;-2.10;99.90;;;;;;5013970;28;20117;-60
2024/01/08 10:05:41;;;;;;;23.52;9.90;;;-2.80;99.90;;;;;;5014049;28;20033;-60
2024/01/08 10:08:07;;;;;;;20.35;9.68;;;-3.30;99.90;;;;;;5014257;28;20026;-60
2024/01/08 10:10:33;;;;;;;24.80;10.15;;;-1.80;99.90;;;;;;5014127;28;20030;-60
2024/01/08 10:12:59;;;;;;;20.60;10.23;;;-1.30;99.90;;;;;;5012709;28;20022;-61
2024/01/08 10:15:26;;;;;;;19.10;9.88;;;-2.00;99.90;;;;;;5029133;28;20033;-60
2024/01/08 10:17:54;;;;;;;20.50;9.90;;;-3.30;99.90;;;;;;5013872;28;20076;-60
2024/01/08 10:20:19;;;;;;;20.52;9.07;;;-1.40;99.90;;;;;;5029251;28;20120;-60
2024/01/08 10:22:45;;;;;;;28.65;11.23;;;-1.70;99.90;;;;;;5013986;28;20068;-61
2024/01/08 10:25:18;;;;;;;19.88;10.27;;;-1.30;99.90;;;;;;5013978;28;20049;-60
2024/01/08 10:27:45;;;;;;;27.67;11.10;;;-2.10;99.90;;;;;;5013626;28;20470;-60
2024/01/08 10:30:11;;;;;;;23.55;10.60;;;-3.40;99.90;;;;;;5013593;28;20113;-61
2024/01/08 10:32:37;;;;;;;22.45;10.40;;;-3.40;99.90;;;;;;5014131;28;20018;-60
2024/01/08 10:35:04;;;;;;;22.58;10.10;;;-3.30;99.90;;;;;;5012607;28;20120;-60
2024/01/08 10:37:30;;;;;;;21.48;9.85;;;-3.30;99.90;;;;;;5012654;28;20081;-60
2024/01/08 10:39:57;;;;;;;24.25;11.30;;;-3.30;99.90;;;;;;5013792;28;20030;-61
2024/01/08 10:42:23;;;;;;;18.42;9.75;;;-3.20;99.90;;;;;;5017237;28;20026;-61
2024/01/08 10:44:49;;;;;;;20.52;9.85;;;-3.20;99.90;;;;;;5017217;28;20076;-60
2024/01/08 10:47:23;;;;;;;23.02;9.65;;;-3.20;99.90;;;;;;5016496;28;20057;-60
2024/01/08 10:49:52;;;;;;;26.70;12.00;;;-2.20;99.90;;;;;;5017697;28;20112;-60
2024/01/08 10:52:25;;;;;;;23.52;11.10;;;-2.70;99.90;;;;;;5017533;28;20087;-61
2024/01/08 10:54:57;;;;;;;31.08;11.50;;;-0.50;99.90;;;;;;5017210;28;20494;-60
2024/01/08 10:57:43;;;;;;;26.00;10.50;;;-3.40;99.90;;;;;;5032597;28;20120;-60
2024/01/08 11:00:10;;;;;;;29.35;10.80;;;-3.40;99.90;;;;;;5015685;28;20042;-60
2024/01/08 11:02:40;;;;;;;27.83;11.75;;;-3.40;99.90;;;;;;5017324;28;20030;-61
2024/01/08 11:05:08;;;;;;;22.33;10.85;;;-0.70;99.90;;;;;;5032494;28;20041;-60
2024/01/08 11:07:40;;;;;;;25.90;10.80;;;-3.40;99.90;;;;;;5016053;28;20065;-61
2024/01/08 11:10:09;;;;;;;23.83;11.73;;;-3.40;99.90;;;;;;5017043;28;20478;-60
2024/01/08 11:12:41;;;;;;;23.30;11.48;;;-3.40;99.90;;;;;;5017189;28;20025;-60
2024/01/08 11:15:09;;;;;;;30.65;12.60;;;-3.30;99.90;;;;;;5032740;28;20445;-60
2024/01/08 11:17:35;;;;;;;26.50;10.82;;;-3.40;99.90;;;;;;5016799;28;20026;-60
2024/01/08 11:20:05;;;;;;;25.15;11.45;;;-3.40;99.90;;;;;;5015760;28;20515;-61
2024/01/08 11:22:31;;;;;;;24.80;12.13;;;-3.40;99.90;;;;;;5032143;28;20032;-60
2024/01/08 11:24:58;;;;;;;26.92;11.43;;;-0.70;99.90;;;;;;5016767;28;20030;-60
2024/01/08 11:27:25;;;;;;;24.33;11.85;;;-3.40;99.90;;;;;;5032101;28;20358;-60
2024/01/08 11:29:57;;;;;;;22.80;11.38;;;-3.40;99.90;;;;;;5032112;28;20037;-60
2024/01/08 11:32:44;;;;;;;30.00;12.75;;;-1.70;99.90;;;;;;5016786;28;20026;-60
2024/01/08 11:35:13;;;;;;;25.08;12.13;;;-3.40;99.90;;;;;;5016693;28;20100;-60
2024/01/08 11:37:44;;;;;;;25.60;11.93;;;-3.40;99.90;;;;;;5015468;28;20030;-57
2024/01/08 11:40:18;;;;;;;26.85;11.55;;;-3.20;99.90;;;;;;5016640;28;20064;-57
2024/01/08 11:42:53;;;;;;;27.65;11.77;;;-3.00;99.90;;;;;;5016627;28;20026;-58
2024/01/08 11:45:20;;;;;;;24.13;12.13;;;-2.90;99.90;;;;;;5031439;28;20080;-57
2024/01/08 11:47:46;;;;;;;24.65;11.35;;;-0.70;99.90;;;;;;5015243;28;20426;-57
2024/01/08 11:50:12;;;;;;;29.25;12.15;;;-2.70;99.90;;;;;;5016412;28;20038;-57
2024/01/08 11:52:39;;;;;;;26.75;12.32;;;-1.10;99.90;;;;;;5015572;28;20072;-58
2024/01/08 11:55:09;;;;;;;27.52;11.88;;;-2.60;99.90;;;;;;5016384;28;20120;-58
2024/01/08 11:57:38;;;;;;;28.63;12.00;;;-2.70;99.90;;;;;;5015794;28;20029;-57
2024/01/08 12:00:14;;;;;;;27.50;12.38;;;-0.90;99.90;;;;;;5016264;28;20034;-58
2024/01/08 12:02:39;;;;;;;24.83;12.18;;;-2.60;99.90;;;;;;5016223;28;20057;-58
2024/01/08 12:05:05;;;;;;;24.48;11.55;;;-0.60;99.90;;;;;;5031146;28;20037;-57
2024/01/08 12:07:32;;;;;;;23.33;11.02;;;-2.70;99.90;;;;;;5031279;28;20083;-63
2024/01/08 12:10:04;;;;;;;26.23;11.40;;;-2.60;99.90;;;;;;5031064;28;20038;-61
2024/01/08 12:12:30;;;;;;;26.45;11.98;;;-2.90;99.90;;;;;;5014865;28;20401;-61
2024/01/08 12:14:56;;;;;;;23.17;11.27;;;-3.00;99.90;;;;;;5031051;28;20030;-61
2024/01/08 12:17:22;;;;;;;30.83;12.23;;;-1.70;99.90;;;;;;5015525;28;20029;-60
2024/01/08 12:19:52;;;;;;;30.48;12.23;;;-1.60;99.90;;;;;;5015884;28;20470;-60
2024/01/08 12:22:18;;;;;;;23.95;11.75;;;-3.10;99.90;;;;;;5014541;28;20032;-61
2024/01/08 12:24:46;;;;;;;23.80;12.38;;;-1.40;99.90;;;;;;5015584;28;20105;-61
2024/01/08 12:27:14;;;;;;;32.03;13.07;;;-3.10;99.90;;;;;;5015748;28;20458;-61
2024/01/08 12:29:41;;;;;;;29.83;12.45;;;-0.90;99.90;;;;;;5016005;28;20113;-62
2024/01/08 12:32:09;;;;;;;30.83;12.27;;;-0.90;99.90;;;;;;5015512;28;20026;-60